createdAt,value
2018-09-03T00:00:56.465Z,0.00
2018-09-03T00:01:56.427Z,0.00
2018-09-03T00:02:56.395Z,0.00
2018-09-03T00:03:56.378Z,0.00
2018-09-03T00:04:56.309Z,0.00
2018-09-03T00:05:56.273Z,0.00
2018-09-03T00:06:56.245Z,0.00
2018-09-03T00:07:56.210Z,0.00
2018-09-03T00:08:56.185Z,0.00
2018-09-03T00:09:56.123Z,0.00
2018-09-03T00:10:56.090Z,0.00
2018-09-03T00:11:56.051Z,0.00
2018-09-03T00:12:56.021Z,0.00
2018-09-03T00:13:55.985Z,0.00
2018-09-03T00:14:55.967Z,0.00
2018-09-03T00:15:55.911Z,0.00
2018-09-03T00:16:55.866Z,0.00
2018-09-03T00:17:55.825Z,0.00
2018-09-03T00:18:55.816Z,0.00
2018-09-03T00:19:55.752Z,0.00
2018-09-03T00:20:55.724Z,0.00
2018-09-03T00:21:55.684Z,0.00
2018-09-03T00:22:55.640Z,0.00
2018-09-03T00:23:55.601Z,0.00
2018-09-03T00:24:55.597Z,0.00
2018-09-03T00:25:55.538Z,0.00
2018-09-03T00:26:55.495Z,0.00
2018-09-03T00:27:55.458Z,0.00
2018-09-03T00:28:55.417Z,0.00
2018-09-03T00:29:55.399Z,0.00
2018-09-03T00:30:55.337Z,0.00
2018-09-03T00:31:55.302Z,0.00
2018-09-03T00:32:55.269Z,0.00
2018-09-03T00:33:55.230Z,0.00
2018-09-03T00:34:55.223Z,0.00
2018-09-03T00:35:55.158Z,0.00
2018-09-03T00:36:55.112Z,0.00
2018-09-03T00:37:55.071Z,0.00
2018-09-03T00:38:55.044Z,0.00
2018-09-03T00:39:55.006Z,0.00
2018-09-03T00:40:54.981Z,0.00
2018-09-03T00:41:54.921Z,0.00
2018-09-03T00:42:54.885Z,0.00
2018-09-03T00:43:54.847Z,0.00
2018-09-03T00:44:54.813Z,0.00
2018-09-03T00:45:54.797Z,0.00
2018-09-03T00:46:54.741Z,0.00
2018-09-03T00:47:54.701Z,0.00
2018-09-03T00:48:54.657Z,0.00
2018-09-03T00:49:54.622Z,0.00
2018-09-03T00:50:54.606Z,0.00
2018-09-03T00:51:54.541Z,0.00
2018-09-03T00:52:54.512Z,0.00
2018-09-03T00:53:54.474Z,0.00
2018-09-03T00:54:54.431Z,0.00
2018-09-03T00:55:54.436Z,0.00
2018-09-03T00:56:54.360Z,0.00
2018-09-03T00:58:04.737Z,0.00
2018-09-03T00:58:54.278Z,0.00
2018-09-03T00:59:54.235Z,0.00
2018-09-03T01:00:54.197Z,0.00
2018-09-03T01:01:54.184Z,0.00
2018-09-03T01:02:54.131Z,0.00
2018-09-03T01:03:54.092Z,0.00
2018-09-03T01:04:54.056Z,0.00
2018-09-03T01:05:54.016Z,0.00
2018-09-03T01:06:53.992Z,0.00
2018-09-03T01:07:53.931Z,0.00
2018-09-03T01:08:53.900Z,0.00
2018-09-03T01:09:53.861Z,0.00
2018-09-03T01:10:53.815Z,0.00
2018-09-03T01:11:53.797Z,0.00
2018-09-03T01:12:53.739Z,0.00
2018-09-03T01:13:53.701Z,0.00
2018-09-03T01:14:53.671Z,0.00
2018-09-03T01:15:53.634Z,0.00
2018-09-03T01:16:53.619Z,0.00
2018-09-03T01:17:53.556Z,0.00
2018-09-03T01:18:53.511Z,0.00
2018-09-03T01:19:53.471Z,0.00
2018-09-03T01:20:53.432Z,0.00
2018-09-03T01:21:53.392Z,0.00
2018-09-03T01:22:53.386Z,0.00
2018-09-03T01:23:53.321Z,0.00
2018-09-03T01:24:53.278Z,0.00
2018-09-03T01:25:53.239Z,0.00
2018-09-03T01:26:53.212Z,0.00
2018-09-03T01:27:53.196Z,0.00
2018-09-03T01:28:53.133Z,0.00
2018-09-03T01:29:53.099Z,0.00
2018-09-03T01:30:53.046Z,0.00
2018-09-03T01:31:53.021Z,0.00
2018-09-03T01:32:52.988Z,0.00
2018-09-03T01:33:52.931Z,0.00
2018-09-03T01:34:52.904Z,0.00
2018-09-03T01:35:52.863Z,0.00
2018-09-03T01:36:52.828Z,0.00
2018-09-03T01:37:52.807Z,0.00
2018-09-03T01:38:52.743Z,0.00
2018-09-03T01:39:52.704Z,0.00
2018-09-03T01:40:52.672Z,0.00
2018-09-03T01:41:52.635Z,0.00
2018-09-03T01:42:52.612Z,0.00
2018-09-03T01:43:52.552Z,0.00
2018-09-03T01:44:52.512Z,0.00
2018-09-03T01:45:52.474Z,0.00
2018-09-03T01:46:52.446Z,0.00
2018-09-03T01:47:52.432Z,0.00
2018-09-03T01:48:52.373Z,0.00
2018-09-03T01:49:52.332Z,0.00
2018-09-03T01:50:52.288Z,0.00
2018-09-03T01:51:52.248Z,0.00
2018-09-03T01:52:52.211Z,0.00
2018-09-03T01:53:52.193Z,0.00
2018-09-03T01:54:52.142Z,0.00
2018-09-03T01:55:52.102Z,0.00
2018-09-03T01:56:52.058Z,0.00
2018-09-03T01:57:52.021Z,0.00
2018-09-03T01:58:52.012Z,0.00
2018-09-03T01:59:51.949Z,0.00
2018-09-03T02:00:51.914Z,0.00
2018-09-03T02:01:51.876Z,0.00
2018-09-03T02:02:51.841Z,0.00
2018-09-03T02:03:51.813Z,0.00
2018-09-03T02:04:51.754Z,0.00
2018-09-03T02:05:51.717Z,0.00
2018-09-03T02:06:51.687Z,0.00
2018-09-03T02:07:51.651Z,0.00
2018-09-03T02:08:51.638Z,0.00
2018-09-03T02:09:51.573Z,0.00
2018-09-03T02:10:51.526Z,0.00
2018-09-03T02:11:51.497Z,0.00
2018-09-03T02:12:51.458Z,0.00
2018-09-03T02:13:51.421Z,0.00
2018-09-03T02:14:51.400Z,0.00
2018-09-03T02:15:51.341Z,0.00
2018-09-03T02:16:51.301Z,0.00
2018-09-03T02:17:51.265Z,0.00
2018-09-03T02:18:51.234Z,0.00
2018-09-03T02:19:51.216Z,0.00
2018-09-03T02:20:51.155Z,0.00
2018-09-03T02:21:51.117Z,0.00
2018-09-03T02:22:51.077Z,0.00
2018-09-03T02:23:51.039Z,0.00
2018-09-03T02:24:51.025Z,0.00
2018-09-03T02:25:50.961Z,0.00
2018-09-03T02:26:50.932Z,0.00
2018-09-03T02:27:50.892Z,0.00
2018-09-03T02:28:50.846Z,0.00
2018-09-03T02:29:50.812Z,0.00
2018-09-03T02:30:50.807Z,0.00
2018-09-03T02:31:50.742Z,0.00
2018-09-03T02:32:50.701Z,0.00
2018-09-03T02:33:50.664Z,0.00
2018-09-03T02:34:50.620Z,0.00
2018-09-03T02:36:00.307Z,0.00
2018-09-03T02:36:50.552Z,0.00
2018-09-03T02:37:50.519Z,0.00
2018-09-03T02:38:50.480Z,0.00
2018-09-03T02:39:50.438Z,0.00
2018-09-03T02:40:50.421Z,0.00
2018-09-03T02:41:50.356Z,0.00
2018-09-03T02:42:50.328Z,0.00
2018-09-03T02:43:50.288Z,0.00
2018-09-03T02:44:50.245Z,0.00
2018-09-03T02:45:50.207Z,0.00
2018-09-03T02:46:50.187Z,0.00
2018-09-03T02:47:50.132Z,0.00
2018-09-03T02:48:50.097Z,0.00
2018-09-03T02:49:50.063Z,0.00
2018-09-03T02:50:50.027Z,0.00
2018-09-03T02:51:50.007Z,0.00
2018-09-03T02:52:49.942Z,0.00
2018-09-03T02:53:49.906Z,0.00
2018-09-03T02:54:49.866Z,0.00
2018-09-03T02:55:49.827Z,0.00
2018-09-03T02:56:49.822Z,0.00
2018-09-03T02:57:49.759Z,0.00
2018-09-03T02:58:49.715Z,0.00
2018-09-03T02:59:49.676Z,0.00
2018-09-03T03:00:49.667Z,0.00
2018-09-03T03:01:49.637Z,0.00
2018-09-03T03:02:49.576Z,0.00
2018-09-03T03:03:49.534Z,0.00
2018-09-03T03:04:49.488Z,0.00
2018-09-03T03:05:49.453Z,0.00
2018-09-03T03:06:49.413Z,0.00
2018-09-03T03:07:49.396Z,0.00
2018-09-03T03:08:49.346Z,0.00
2018-09-03T03:09:49.309Z,0.00
2018-09-03T03:10:49.273Z,0.00
2018-09-03T03:11:49.304Z,0.00
2018-09-03T03:12:49.208Z,0.00
2018-09-03T03:13:49.153Z,0.00
2018-09-03T03:14:59.339Z,0.00
2018-09-03T03:15:49.075Z,0.00
2018-09-03T03:16:49.040Z,0.00
2018-09-03T03:17:49.025Z,0.00
2018-09-03T03:18:48.970Z,0.00
2018-09-03T03:19:48.932Z,0.00
2018-09-03T03:20:48.892Z,0.00
2018-09-03T03:21:48.859Z,0.00
2018-09-03T03:22:48.810Z,0.00
2018-09-03T03:23:48.793Z,0.00
2018-09-03T03:24:48.733Z,0.00
2018-09-03T03:25:48.696Z,0.00
2018-09-03T03:26:48.664Z,0.00
2018-09-03T03:27:48.628Z,0.00
2018-09-03T03:28:48.607Z,0.00
2018-09-03T03:29:48.544Z,0.00
2018-09-03T03:30:48.523Z,0.00
2018-09-03T03:31:48.477Z,0.00
2018-09-03T03:32:48.440Z,0.00
2018-09-03T03:33:48.424Z,0.00
2018-09-03T03:34:58.384Z,0.00
2018-09-03T03:35:48.321Z,0.00
2018-09-03T03:36:48.291Z,0.00
2018-09-03T03:37:48.253Z,0.00
2018-09-03T03:38:48.237Z,0.00
2018-09-03T03:39:48.176Z,0.00
2018-09-03T03:40:48.129Z,0.00
2018-09-03T03:41:48.095Z,0.00
2018-09-03T03:42:48.062Z,0.00
2018-09-03T03:43:48.049Z,0.00
2018-09-03T03:44:47.977Z,0.00
2018-09-03T03:45:47.941Z,0.00
2018-09-03T03:46:47.903Z,0.00
2018-09-03T03:47:47.866Z,0.00
2018-09-03T03:48:47.865Z,0.00
2018-09-03T03:49:47.820Z,0.00
2018-09-03T03:50:47.763Z,0.00
2018-09-03T03:51:47.721Z,0.00
2018-09-03T03:52:47.676Z,0.00
2018-09-03T03:53:47.641Z,0.00
2018-09-03T03:54:47.630Z,0.00
2018-09-03T03:55:47.564Z,0.00
2018-09-03T03:56:47.536Z,0.00
2018-09-03T03:57:47.503Z,0.00
2018-09-03T03:58:47.451Z,0.00
2018-09-03T03:59:47.411Z,0.00
2018-09-03T04:00:47.407Z,0.00
2018-09-03T04:01:47.344Z,0.00
2018-09-03T04:02:47.306Z,0.00
2018-09-03T04:03:47.294Z,0.00
2018-09-03T04:04:47.227Z,0.00
2018-09-03T04:05:47.206Z,0.00
2018-09-03T04:06:47.152Z,0.00
2018-09-03T04:07:47.111Z,0.00
2018-09-03T04:08:47.083Z,0.00
2018-09-03T04:09:47.044Z,0.00
2018-09-03T04:10:47.023Z,0.00
2018-09-03T04:11:46.963Z,0.00
2018-09-03T04:12:46.921Z,0.00
2018-09-03T04:13:46.883Z,0.00
2018-09-03T04:14:46.855Z,0.00
2018-09-03T04:15:46.838Z,0.00
2018-09-03T04:16:46.770Z,0.00
2018-09-03T04:17:46.734Z,0.00
2018-09-03T04:18:46.695Z,0.00
2018-09-03T04:19:46.658Z,0.00
2018-09-03T04:20:46.650Z,0.00
2018-09-03T04:21:46.593Z,0.00
2018-09-03T04:22:46.568Z,0.00
2018-09-03T04:23:46.515Z,0.00
2018-09-03T04:24:46.471Z,0.00
2018-09-03T04:25:46.451Z,0.00
2018-09-03T04:26:46.393Z,0.00
2018-09-03T04:27:46.354Z,0.00
2018-09-03T04:28:46.362Z,0.00
2018-09-03T04:29:46.288Z,0.00
2018-09-03T04:30:46.268Z,0.00
2018-09-03T04:31:46.205Z,0.00
2018-09-03T04:32:46.175Z,0.00
2018-09-03T04:33:46.133Z,0.00
2018-09-03T04:34:46.100Z,0.00
2018-09-03T04:35:46.061Z,0.00
2018-09-03T04:36:46.041Z,0.00
2018-09-03T04:37:45.979Z,0.00
2018-09-03T04:38:45.956Z,0.00
2018-09-03T04:39:45.906Z,0.00
2018-09-03T04:40:45.872Z,0.00
2018-09-03T04:41:45.859Z,0.00
2018-09-03T04:42:45.800Z,0.00
2018-09-03T04:43:45.758Z,5.63
2018-09-03T04:44:45.714Z,5.63
2018-09-03T04:45:45.683Z,5.63
2018-09-03T04:46:45.671Z,5.63
2018-09-03T04:47:45.613Z,5.63
2018-09-03T04:48:45.565Z,5.63
2018-09-03T04:49:45.529Z,5.63
2018-09-03T04:50:45.491Z,5.63
2018-09-03T04:51:45.455Z,5.63
2018-09-03T04:52:45.442Z,5.63
2018-09-03T04:53:45.385Z,5.63
2018-09-03T04:54:45.430Z,5.63
2018-09-03T04:55:45.308Z,5.63
2018-09-03T04:56:45.264Z,5.63
2018-09-03T04:57:45.250Z,5.63
2018-09-03T04:58:45.188Z,5.63
2018-09-03T04:59:45.149Z,11.25
2018-09-03T05:00:45.119Z,11.25
2018-09-03T05:01:45.101Z,11.25
2018-09-03T05:02:45.065Z,11.25
2018-09-03T05:03:45.003Z,11.25
2018-09-03T05:04:44.976Z,16.88
2018-09-03T05:05:44.951Z,16.88
2018-09-03T05:06:44.901Z,16.88
2018-09-03T05:07:44.907Z,16.88
2018-09-03T05:08:44.836Z,16.88
2018-09-03T05:09:44.778Z,16.88
2018-09-03T05:10:44.736Z,16.88
2018-09-03T05:11:44.721Z,16.88
2018-09-03T05:12:44.673Z,16.88
2018-09-03T05:13:44.655Z,16.88
2018-09-03T05:14:44.596Z,22.50
2018-09-03T05:15:44.560Z,22.50
2018-09-03T05:16:44.513Z,22.50
2018-09-03T05:17:44.475Z,22.50
2018-09-03T05:18:44.470Z,28.13
2018-09-03T05:19:44.406Z,28.13
2018-09-03T05:20:44.363Z,33.75
2018-09-03T05:21:44.323Z,33.75
2018-09-03T05:22:44.286Z,33.75
2018-09-03T05:23:44.278Z,39.38
2018-09-03T05:24:44.222Z,39.38
2018-09-03T05:25:44.183Z,39.38
2018-09-03T05:26:44.148Z,39.38
2018-09-03T05:27:44.106Z,45.00
2018-09-03T05:28:44.062Z,45.00
2018-09-03T05:29:44.044Z,50.63
2018-09-03T05:30:43.988Z,56.25
2018-09-03T05:31:43.949Z,61.88
2018-09-03T05:32:43.918Z,67.50
2018-09-03T05:33:43.907Z,73.13
2018-09-03T05:34:43.837Z,84.38
2018-09-03T05:35:43.802Z,95.63
2018-09-03T05:36:43.767Z,101.25
2018-09-03T05:37:43.729Z,106.88
2018-09-03T05:38:43.693Z,123.75
2018-09-03T05:39:43.678Z,140.63
2018-09-03T05:40:43.612Z,151.88
2018-09-03T05:41:43.574Z,163.13
2018-09-03T05:42:43.536Z,180.00
2018-09-03T05:43:43.653Z,185.63
2018-09-03T05:44:43.492Z,196.88
2018-09-03T05:45:43.431Z,202.50
2018-09-03T05:46:43.398Z,202.50
2018-09-03T05:47:43.356Z,202.50
2018-09-03T05:48:43.311Z,196.88
2018-09-03T05:49:43.296Z,185.63
2018-09-03T05:50:43.309Z,174.38
2018-09-03T05:51:43.210Z,168.75
2018-09-03T05:52:43.162Z,168.75
2018-09-03T05:53:43.126Z,174.38
2018-09-03T05:54:43.116Z,174.38
2018-09-03T05:55:43.051Z,174.38
2018-09-03T05:56:43.027Z,180.00
2018-09-03T05:57:42.982Z,180.00
2018-09-03T05:58:42.947Z,174.38
2018-09-03T05:59:42.944Z,174.38
2018-09-03T06:00:42.866Z,174.38
2018-09-03T06:01:42.828Z,185.63
2018-09-03T06:02:42.824Z,208.13
2018-09-03T06:03:42.755Z,230.63
2018-09-03T06:04:42.732Z,258.75
2018-09-03T06:05:42.711Z,281.25
2018-09-03T06:06:42.663Z,286.88
2018-09-03T06:07:42.606Z,298.13
2018-09-03T06:08:42.577Z,309.38
2018-09-03T06:09:42.539Z,309.38
2018-09-03T06:10:42.579Z,309.38
2018-09-03T06:11:53.836Z,309.38
2018-09-03T06:12:42.432Z,303.75
2018-09-03T06:13:42.386Z,298.13
2018-09-03T06:14:42.354Z,292.50
2018-09-03T06:15:42.344Z,292.50
2018-09-03T06:16:42.280Z,298.13
2018-09-03T06:17:42.291Z,303.75
2018-09-03T06:18:42.199Z,309.38
2018-09-03T06:19:42.163Z,309.38
2018-09-03T06:20:42.160Z,315.00
2018-09-03T06:21:42.107Z,315.00
2018-09-03T06:22:42.054Z,315.00
2018-09-03T06:23:42.018Z,298.13
2018-09-03T06:24:41.984Z,298.13
2018-09-03T06:25:41.945Z,292.50
2018-09-03T06:26:42.003Z,286.88
2018-09-03T06:27:41.881Z,270.00
2018-09-03T06:28:41.846Z,253.13
2018-09-03T06:29:41.808Z,230.63
2018-09-03T06:30:41.762Z,225.00
2018-09-03T06:31:41.749Z,236.25
2018-09-03T06:32:41.694Z,236.25
2018-09-03T06:33:41.655Z,230.63
2018-09-03T06:34:41.624Z,230.63
2018-09-03T06:35:41.588Z,230.63
2018-09-03T06:36:41.544Z,219.38
2018-09-03T06:37:41.530Z,202.50
2018-09-03T06:38:41.476Z,191.25
2018-09-03T06:39:41.441Z,180.00
2018-09-03T06:40:41.408Z,180.00
2018-09-03T06:41:41.364Z,180.00
2018-09-03T06:42:41.346Z,185.63
2018-09-03T06:43:41.286Z,191.25
2018-09-03T06:44:41.252Z,196.88
2018-09-03T06:45:41.215Z,185.63
2018-09-03T06:46:41.186Z,174.38
2018-09-03T06:47:41.168Z,151.88
2018-09-03T06:48:41.112Z,140.63
2018-09-03T06:49:41.076Z,135.00
2018-09-03T06:50:41.038Z,129.38
2018-09-03T06:51:51.516Z,118.13
2018-09-03T06:52:41.026Z,118.13
2018-09-03T06:53:40.924Z,112.50
2018-09-03T06:54:40.890Z,112.50
2018-09-03T06:55:40.850Z,118.13
2018-09-03T06:56:40.819Z,129.38
2018-09-03T06:57:40.792Z,151.88
2018-09-03T06:58:40.768Z,174.38
2018-09-03T06:59:40.735Z,202.50
2018-09-03T07:00:40.705Z,230.63
2018-09-03T07:01:40.631Z,247.50
2018-09-03T07:02:40.592Z,258.75
2018-09-03T07:03:40.578Z,258.75
2018-09-03T07:04:40.527Z,253.13
2018-09-03T07:05:40.491Z,258.75
2018-09-03T07:06:40.502Z,264.38
2018-09-03T07:07:40.409Z,270.00
2018-09-03T07:08:40.412Z,270.00
2018-09-03T07:09:40.359Z,270.00
2018-09-03T07:10:40.309Z,253.13
2018-09-03T07:11:40.270Z,225.00
2018-09-03T07:12:40.226Z,208.13
2018-09-03T07:13:40.200Z,191.25
2018-09-03T07:14:40.175Z,185.63
2018-09-03T07:15:40.120Z,196.88
2018-09-03T07:16:40.088Z,208.13
2018-09-03T07:17:40.055Z,213.75
2018-09-03T07:18:40.061Z,213.75
2018-09-03T07:19:40.004Z,213.75
2018-09-03T07:20:39.940Z,225.00
2018-09-03T07:21:39.897Z,247.50
2018-09-03T07:22:39.871Z,258.75
2018-09-03T07:23:39.833Z,275.63
2018-09-03T07:24:39.814Z,303.75
2018-09-03T07:25:39.764Z,343.13
2018-09-03T07:26:39.717Z,376.88
2018-09-03T07:27:39.682Z,405.00
2018-09-03T07:28:39.657Z,433.13
2018-09-03T07:29:39.641Z,478.13
2018-09-03T07:30:39.601Z,523.13
2018-09-03T07:31:39.544Z,545.63
2018-09-03T07:32:39.505Z,534.38
2018-09-03T07:33:39.463Z,517.50
2018-09-03T07:34:39.429Z,489.38
2018-09-03T07:35:39.438Z,450.00
2018-09-03T07:36:39.367Z,405.00
2018-09-03T07:37:39.328Z,376.88
2018-09-03T07:38:39.287Z,348.75
2018-09-03T07:39:39.249Z,309.38
2018-09-03T07:40:39.242Z,258.75
2018-09-03T07:41:39.188Z,225.00
2018-09-03T07:42:39.148Z,208.13
2018-09-03T07:43:39.111Z,196.88
2018-09-03T07:44:39.070Z,191.25
2018-09-03T07:45:39.059Z,196.88
2018-09-03T07:46:38.998Z,202.50
2018-09-03T07:47:39.017Z,202.50
2018-09-03T07:48:38.933Z,202.50
2018-09-03T07:49:38.910Z,196.88
2018-09-03T07:50:38.860Z,185.63
2018-09-03T07:51:48.582Z,180.00
2018-09-03T07:52:38.789Z,174.38
2018-09-03T07:53:38.754Z,174.38
2018-09-03T07:54:38.710Z,168.75
2018-09-03T07:55:38.676Z,163.13
2018-09-03T07:56:38.660Z,157.50
2018-09-03T07:57:38.601Z,157.50
2018-09-03T07:58:38.572Z,151.88
2018-09-03T07:59:38.534Z,146.25
2018-09-03T08:00:38.500Z,151.88
2018-09-03T08:01:38.490Z,151.88
2018-09-03T08:02:38.422Z,146.25
2018-09-03T08:03:38.380Z,146.25
2018-09-03T08:04:38.348Z,151.88
2018-09-03T08:05:38.318Z,163.13
2018-09-03T08:06:38.285Z,163.13
2018-09-03T08:07:38.269Z,163.13
2018-09-03T08:08:38.203Z,168.75
2018-09-03T08:09:38.165Z,157.50
2018-09-03T08:10:38.136Z,157.50
2018-09-03T08:11:38.105Z,157.50
2018-09-03T08:12:38.085Z,163.13
2018-09-03T08:13:38.031Z,168.75
2018-09-03T08:14:37.984Z,174.38
2018-09-03T08:15:37.949Z,174.38
2018-09-03T08:16:37.916Z,163.13
2018-09-03T08:17:37.902Z,157.50
2018-09-03T08:18:37.838Z,163.13
2018-09-03T08:19:37.798Z,174.38
2018-09-03T08:20:37.763Z,174.38
2018-09-03T08:21:37.725Z,168.75
2018-09-03T08:22:37.721Z,174.38
2018-09-03T08:23:37.658Z,174.38
2018-09-03T08:24:37.617Z,168.75
2018-09-03T08:25:37.578Z,157.50
2018-09-03T08:26:37.543Z,157.50
2018-09-03T08:27:37.507Z,168.75
2018-09-03T08:28:37.497Z,185.63
2018-09-03T08:29:37.437Z,196.88
2018-09-03T08:30:37.391Z,208.13
2018-09-03T08:31:37.355Z,230.63
2018-09-03T08:32:37.320Z,247.50
2018-09-03T08:33:37.302Z,230.63
2018-09-03T08:34:37.251Z,213.75
2018-09-03T08:35:37.238Z,219.38
2018-09-03T08:36:37.179Z,230.63
2018-09-03T08:37:37.140Z,230.63
2018-09-03T08:38:37.115Z,230.63
2018-09-03T08:39:37.055Z,230.63
2018-09-03T08:40:37.036Z,241.88
2018-09-03T08:41:36.990Z,258.75
2018-09-03T08:42:36.946Z,258.75
2018-09-03T08:43:36.954Z,236.25
2018-09-03T08:44:36.898Z,213.75
2018-09-03T08:45:36.840Z,208.13
2018-09-03T08:46:36.805Z,202.50
2018-09-03T08:47:36.767Z,208.13
2018-09-03T08:48:36.753Z,230.63
2018-09-03T08:49:36.692Z,258.75
2018-09-03T08:50:36.651Z,270.00
2018-09-03T08:51:36.613Z,270.00
2018-09-03T08:52:36.575Z,292.50
2018-09-03T08:53:36.567Z,337.50
2018-09-03T08:54:36.510Z,371.25
2018-09-03T08:55:36.473Z,365.63
2018-09-03T08:56:36.430Z,331.88
2018-09-03T08:57:36.393Z,315.00
2018-09-03T08:58:36.362Z,326.25
2018-09-03T08:59:36.346Z,348.75
2018-09-03T09:00:36.288Z,365.63
2018-09-03T09:01:36.250Z,365.63
2018-09-03T09:02:36.209Z,371.25
2018-09-03T09:03:36.175Z,354.38
2018-09-03T09:04:36.155Z,337.50
2018-09-03T09:05:36.095Z,320.63
2018-09-03T09:06:36.068Z,320.63
2018-09-03T09:07:36.029Z,326.25
2018-09-03T09:08:35.991Z,309.38
2018-09-03T09:09:35.975Z,275.63
2018-09-03T09:10:35.912Z,258.75
2018-09-03T09:11:35.939Z,270.00
2018-09-03T09:12:35.845Z,281.25
2018-09-03T09:13:35.810Z,292.50
2018-09-03T09:14:35.798Z,303.75
2018-09-03T09:15:35.728Z,315.00
2018-09-03T09:16:35.692Z,331.88
2018-09-03T09:17:35.668Z,354.38
2018-09-03T09:18:35.626Z,376.88
2018-09-03T09:19:35.588Z,376.88
2018-09-03T09:20:35.580Z,376.88
2018-09-03T09:21:35.513Z,371.25
2018-09-03T09:22:35.474Z,376.88
2018-09-03T09:23:35.434Z,393.75
2018-09-03T09:24:35.446Z,399.38
2018-09-03T09:25:35.386Z,393.75
2018-09-03T09:26:35.353Z,399.38
2018-09-03T09:27:35.295Z,421.88
2018-09-03T09:28:35.255Z,461.25
2018-09-03T09:29:35.220Z,517.50
2018-09-03T09:30:35.229Z,545.63
2018-09-03T09:31:45.635Z,534.38
2018-09-03T09:32:35.107Z,534.38
2018-09-03T09:33:35.077Z,517.50
2018-09-03T09:34:35.044Z,478.13
2018-09-03T09:35:34.996Z,433.13
2018-09-03T09:36:35.026Z,382.50
2018-09-03T09:37:34.935Z,354.38
2018-09-03T09:38:34.905Z,337.50
2018-09-03T09:39:34.861Z,326.25
2018-09-03T09:40:34.818Z,320.63
2018-09-03T09:41:34.804Z,343.13
2018-09-03T09:42:34.748Z,399.38
2018-09-03T09:43:34.716Z,455.63
2018-09-03T09:44:34.673Z,478.13
2018-09-03T09:45:34.736Z,472.50
2018-09-03T09:46:34.628Z,483.75
2018-09-03T09:47:34.571Z,483.75
2018-09-03T09:48:34.533Z,500.63
2018-09-03T09:49:34.497Z,579.38
2018-09-03T09:50:34.462Z,697.50
2018-09-03T09:51:34.451Z,843.75
2018-09-03T09:52:34.383Z,950.63
2018-09-03T09:53:34.346Z,1001.25
2018-09-03T09:54:34.313Z,990.00
2018-09-03T09:55:34.282Z,916.88
2018-09-03T09:56:34.248Z,883.13
2018-09-03T09:57:34.231Z,888.75
2018-09-03T09:58:34.171Z,900.00
2018-09-03T09:59:34.134Z,922.50
2018-09-03T10:00:34.105Z,950.63
2018-09-03T10:01:34.073Z,945.00
2018-09-03T10:02:34.057Z,933.75
2018-09-03T10:03:33.997Z,1001.25
2018-09-03T10:04:33.958Z,1113.75
2018-09-03T10:05:33.923Z,1186.88
2018-09-03T10:06:33.885Z,1091.25
2018-09-03T10:07:33.879Z,978.75
2018-09-03T10:08:33.826Z,945.00
2018-09-03T10:09:33.787Z,928.13
2018-09-03T10:10:33.763Z,961.88
2018-09-03T10:11:33.724Z,1085.63
2018-09-03T10:12:33.699Z,1209.38
2018-09-03T10:13:33.640Z,1231.88
2018-09-03T10:14:33.616Z,1231.88
2018-09-03T10:15:33.581Z,1333.13
2018-09-03T10:16:33.567Z,1271.25
2018-09-03T10:17:33.504Z,1153.13
2018-09-03T10:18:33.471Z,1035.00
2018-09-03T10:19:33.436Z,956.25
2018-09-03T10:20:33.411Z,905.63
2018-09-03T10:21:33.376Z,866.25
2018-09-03T10:22:33.363Z,849.38
2018-09-03T10:23:33.305Z,843.75
2018-09-03T10:24:33.269Z,838.13
2018-09-03T10:25:33.261Z,855.00
2018-09-03T10:26:33.220Z,888.75
2018-09-03T10:27:33.160Z,888.75
2018-09-03T10:28:33.138Z,911.25
2018-09-03T10:29:33.118Z,950.63
2018-09-03T10:30:43.192Z,1006.88
2018-09-03T10:31:33.044Z,1023.75
2018-09-03T10:32:33.132Z,973.13
2018-09-03T10:33:32.964Z,916.88
2018-09-03T10:34:32.922Z,922.50
2018-09-03T10:35:32.927Z,928.13
2018-09-03T10:36:32.850Z,950.63
2018-09-03T10:37:32.874Z,984.38
2018-09-03T10:38:32.792Z,1046.25
2018-09-03T10:39:32.756Z,1051.88
2018-09-03T10:40:32.720Z,1035.00
2018-09-03T10:41:32.699Z,1051.88
2018-09-03T10:42:32.672Z,1102.50
2018-09-03T10:43:32.622Z,1130.63
2018-09-03T10:44:32.585Z,1113.75
2018-09-03T10:45:32.557Z,1102.50
2018-09-03T10:46:32.507Z,1130.63
2018-09-03T10:47:32.560Z,1215.00
2018-09-03T10:48:42.249Z,1226.25
2018-09-03T10:49:32.415Z,1170.00
2018-09-03T10:50:32.383Z,1186.88
2018-09-03T10:51:32.347Z,1276.88
2018-09-03T10:52:32.305Z,1417.50
2018-09-03T10:53:32.289Z,1620.00
2018-09-03T10:54:32.241Z,1631.25
2018-09-03T10:55:32.205Z,1580.63
2018-09-03T10:56:32.176Z,1569.38
2018-09-03T10:57:32.140Z,1546.88
2018-09-03T10:58:32.130Z,1530.00
2018-09-03T10:59:32.065Z,1445.63
2018-09-03T11:00:32.042Z,1383.75
2018-09-03T11:01:32.017Z,1338.75
2018-09-03T11:02:31.974Z,1327.50
2018-09-03T11:03:31.943Z,1276.88
2018-09-03T11:04:31.920Z,1175.63
2018-09-03T11:05:31.869Z,1119.38
2018-09-03T11:06:31.835Z,1130.63
2018-09-03T11:07:31.799Z,1248.75
2018-09-03T11:08:31.775Z,1361.25
2018-09-03T11:09:31.764Z,1288.13
2018-09-03T11:10:31.708Z,1198.13
2018-09-03T11:11:31.708Z,1170.00
2018-09-03T11:12:31.636Z,1164.38
2018-09-03T11:13:31.603Z,1170.00
2018-09-03T11:14:31.606Z,1164.38
2018-09-03T11:15:31.545Z,1153.13
2018-09-03T11:16:31.509Z,1153.13
2018-09-03T11:17:31.473Z,1125.00
2018-09-03T11:18:31.440Z,1040.63
2018-09-03T11:19:31.405Z,956.25
2018-09-03T11:20:31.400Z,900.00
2018-09-03T11:21:31.598Z,911.25
2018-09-03T11:22:31.430Z,939.38
2018-09-03T11:23:31.280Z,933.75
2018-09-03T11:24:31.302Z,922.50
2018-09-03T11:25:31.208Z,894.38
2018-09-03T11:26:31.174Z,916.88
2018-09-03T11:27:31.145Z,1029.38
2018-09-03T11:28:31.115Z,1203.75
2018-09-03T11:29:31.088Z,1428.75
2018-09-03T11:30:31.066Z,1575.00
2018-09-03T11:31:31.010Z,1665.00
2018-09-03T11:32:30.986Z,1518.75
2018-09-03T11:33:30.950Z,1501.88
2018-09-03T11:34:30.924Z,1406.25
2018-09-03T11:35:30.908Z,1265.63
2018-09-03T11:36:30.845Z,1085.63
2018-09-03T11:37:30.812Z,961.88
2018-09-03T11:38:30.783Z,978.75
2018-09-03T11:39:30.750Z,1147.50
2018-09-03T11:40:30.743Z,1254.38
2018-09-03T11:41:30.692Z,1305.00
2018-09-03T11:42:30.656Z,1198.13
2018-09-03T11:43:30.624Z,1175.63
2018-09-03T11:44:30.581Z,1260.00
2018-09-03T11:45:30.574Z,1276.88
2018-09-03T11:46:30.522Z,1378.13
2018-09-03T11:47:30.494Z,1417.50
2018-09-03T11:48:30.450Z,1428.75
2018-09-03T11:49:30.416Z,1541.25
2018-09-03T11:50:30.414Z,1665.00
2018-09-03T11:51:30.355Z,1625.63
2018-09-03T11:52:30.324Z,1653.75
2018-09-03T11:53:30.296Z,2154.38
2018-09-03T11:54:30.336Z,1653.75
2018-09-03T11:55:30.228Z,1265.63
2018-09-03T11:56:30.209Z,1130.63
2018-09-03T11:57:30.156Z,1276.88
2018-09-03T11:58:30.123Z,1479.38
2018-09-03T11:59:30.088Z,1580.63
2018-09-03T12:00:30.131Z,1586.25
2018-09-03T12:01:30.059Z,1681.88
2018-09-03T12:02:29.993Z,1575.00
2018-09-03T12:03:29.961Z,1586.25
2018-09-03T12:04:29.934Z,1591.88
2018-09-03T12:05:29.904Z,1479.38
2018-09-03T12:06:29.920Z,1468.13
2018-09-03T12:07:29.857Z,1591.88
2018-09-03T12:08:29.799Z,1665.00
2018-09-03T12:09:29.761Z,1693.13
2018-09-03T12:10:29.733Z,1884.38
2018-09-03T12:11:29.724Z,1828.13
2018-09-03T12:12:29.674Z,1816.88
2018-09-03T12:13:29.638Z,1929.38
2018-09-03T12:14:29.608Z,1743.75
2018-09-03T12:15:29.581Z,1890.00
2018-09-03T12:16:29.538Z,2070.00
2018-09-03T12:17:29.527Z,2407.50
2018-09-03T12:18:29.481Z,1721.25
2018-09-03T12:19:29.455Z,1417.50
2018-09-03T12:20:29.420Z,1299.38
2018-09-03T12:21:29.378Z,1198.13
2018-09-03T12:22:29.367Z,1153.13
2018-09-03T12:23:29.314Z,1125.00
2018-09-03T12:24:29.292Z,1108.13
2018-09-03T12:25:29.257Z,1080.00
2018-09-03T12:26:29.226Z,1057.50
2018-09-03T12:27:29.221Z,1091.25
2018-09-03T12:28:29.160Z,1119.38
2018-09-03T12:29:29.128Z,1209.38
2018-09-03T12:30:29.091Z,1113.75
2018-09-03T12:31:29.057Z,1074.38
2018-09-03T12:32:29.051Z,1068.75
2018-09-03T12:33:29.005Z,1113.75
2018-09-03T12:34:28.958Z,1186.88
2018-09-03T12:35:28.923Z,1265.63
2018-09-03T12:36:28.900Z,1406.25
2018-09-03T12:37:28.870Z,1243.13
2018-09-03T12:38:28.860Z,1248.75
2018-09-03T12:39:28.802Z,1203.75
2018-09-03T12:40:28.769Z,1147.50
2018-09-03T12:41:28.732Z,1147.50
2018-09-03T12:42:28.699Z,1085.63
2018-09-03T12:43:28.693Z,1096.88
2018-09-03T12:44:28.640Z,1102.50